Time;durP1;ratioP1;P1;durP2;ratioP2;P2;SDS_P1;SDS_P2;PMS_P1;PMS_P2;Temp;Humidity;BMP_temperature;BMP_pressure;BME280_temperature;BME280_humidity;BME280_pressure;Samples;Min_cycle;Max_cycle;Signal;HPM_P1;HPM_P2
2023/07/24 00:01:46;;;;;;;1.17;1.10;;;;;;;19.91;88.65;99360.94;5073839;28;20243;-81
2023/07/24 00:04:12;;;;;;;1.30;1.20;;;;;;;20.00;88.40;99364.72;5073613;28;20208;-82
2023/07/24 00:06:39;;;;;;;0.90;0.90;;;;;;;20.09;87.94;99373.75;5073802;28;20228;-82
2023/07/24 00:09:07;;;;;;;1.63;1.20;;;;;;;20.01;88.16;99376.97;5073229;28;20212;-82
2023/07/24 00:11:33;;;;;;;1.20;1.20;;;;;;;20.08;87.53;99383.53;5074202;28;20678;-84
2023/07/24 00:14:00;;;;;;;1.20;1.00;;;;;;;20.11;87.38;99391.22;5074338;28;20214;-86
2023/07/24 00:16:26;;;;;;;1.30;1.20;;;;;;;20.11;87.24;99408.94;5076854;28;20233;-85
2023/07/24 00:18:53;;;;;;;1.20;1.00;;;;;;;20.11;87.01;99404.47;5073694;28;20212;-83
2023/07/24 00:21:19;;;;;;;1.07;1.07;;;;;;;20.07;87.00;99410.13;5073768;28;20227;-82
2023/07/24 00:23:45;;;;;;;1.27;1.17;;;;;;;20.10;87.09;99409.88;5072700;28;20209;-82
2023/07/24 00:26:13;;;;;;;1.93;1.10;;;;;;;20.09;87.16;99409.03;5073350;28;20232;-83
2023/07/24 00:28:40;;;;;;;1.17;1.17;;;;;;;20.17;86.56;99411.13;5073181;28;20563;-82
2023/07/24 00:31:07;;;;;;;1.20;1.20;;;;;;;20.10;86.81;99418.69;5073638;28;20230;-84
2023/07/24 00:33:33;;;;;;;1.07;1.07;;;;;;;20.01;87.15;99411.41;5081493;28;20697;-82
2023/07/24 00:36:00;;;;;;;1.20;1.10;;;;;;;20.11;86.95;99416.88;5093643;28;20255;-82
2023/07/24 00:38:27;;;;;;;1.30;1.20;;;;;;;20.11;86.65;99411.56;5094842;28;20219;-84
2023/07/24 00:40:53;;;;;;;1.00;1.00;;;;;;;19.99;87.83;99387.69;5096529;28;20231;-84
2023/07/24 00:43:21;;;;;;;1.10;1.07;;;;;;;19.94;87.15;99403.09;5096041;28;20223;-85
2023/07/24 00:45:48;;;;;;;0.97;0.97;;;;;;;20.02;87.06;99395.41;5093012;28;20224;-82
2023/07/24 00:48:15;;;;;;;1.20;1.10;;;;;;;20.05;87.10;99399.63;5093320;28;20211;-82
2023/07/24 00:50:44;;;;;;;1.60;1.20;;;;;;;19.97;87.05;99424.03;5094633;28;20204;-82
2023/07/24 00:53:12;;;;;;;1.70;1.60;;;;;;;20.01;87.08;99422.84;5093072;28;20633;-83
2023/07/24 00:55:39;;;;;;;1.67;1.40;;;;;;;19.86;87.72;99421.38;5092687;28;20690;-83
2023/07/24 00:58:05;;;;;;;1.53;1.47;;;;;;;19.92;87.65;99420.91;5089049;28;20215;-82
2023/07/24 01:00:33;;;;;;;1.47;1.37;;;;;;;19.89;87.82;99430.88;5088968;28;20287;-82
2023/07/24 01:03:00;;;;;;;1.13;1.13;;;;;;;19.96;87.38;99426.81;5092555;28;20590;-81
2023/07/24 01:05:27;;;;;;;1.30;1.20;;;;;;;19.89;87.77;99417.63;5096617;28;20208;-84
2023/07/24 01:07:53;;;;;;;1.40;1.30;;;;;;;19.95;87.49;99418.00;5111614;28;20211;-84
2023/07/24 01:10:20;;;;;;;1.63;1.53;;;;;;;19.94;86.99;99426.06;5097922;28;20226;-82
2023/07/24 01:12:56;;;;;;;1.30;1.20;;;;;;;19.83;87.57;99419.78;5091621;28;20211;-81
2023/07/24 01:15:30;;;;;;;1.43;1.33;;;;;;;19.91;87.05;99416.56;5077565;28;20204;-81
2023/07/24 01:18:01;;;;;;;1.47;1.37;;;;;;;19.90;87.05;99414.88;5075570;28;20663;-81
2023/07/24 01:20:30;;;;;;;1.85;1.45;;;;;;;19.94;87.01;99416.34;5093327;28;20211;-82
2023/07/24 01:23:14;;;;;;;3.20;1.53;;;;;;;19.89;87.21;99418.47;5092111;28;20288;-81
2023/07/24 01:25:53;;;;;;;1.50;1.40;;;;;;;19.93;86.84;99417.28;5092716;28;20224;-81
2023/07/24 01:28:20;;;;;;;1.90;1.77;;;;;;;19.88;86.87;99427.41;5078521;28;20207;-81
2023/07/24 01:30:46;;;;;;;1.60;1.50;;;;;;;19.93;86.84;99419.94;5072996;28;20698;-82
2023/07/24 01:33:13;;;;;;;1.47;1.40;;;;;;;19.90;87.07;99427.25;5073014;28;20203;-82
2023/07/24 01:35:42;;;;;;;1.80;1.70;;;;;;;19.95;86.82;99427.78;5071922;28;20235;-83
2023/07/24 01:38:10;;;;;;;1.90;1.80;;;;;;;19.97;86.44;99425.84;5072266;28;20200;-82
2023/07/24 01:40:37;;;;;;;1.47;1.37;;;;;;;20.00;86.23;99423.81;5088863;28;20201;-82
2023/07/24 01:43:05;;;;;;;1.80;1.70;;;;;;;19.93;86.79;99416.44;5095108;28;20206;-83
2023/07/24 01:45:31;;;;;;;1.63;1.53;;;;;;;20.00;86.71;99423.00;5086639;28;20197;-82
2023/07/24 01:47:58;;;;;;;1.70;1.60;;;;;;;19.84;87.33;99416.19;5072474;28;20231;-81
2023/07/24 01:50:24;;;;;;;1.80;1.53;;;;;;;19.88;87.38;99405.34;5072769;28;20203;-81
2023/07/24 01:52:51;;;;;;;1.93;1.70;;;;;;;19.69;87.83;99403.19;5077857;28;20206;-85
2023/07/24 01:55:18;;;;;;;1.67;1.57;;;;;;;19.62;88.43;99398.34;5099120;28;20218;-87
2023/07/24 01:57:44;;;;;;;2.13;1.97;;;;;;;19.74;88.01;99390.47;5091457;28;20235;-86
2023/07/24 02:00:13;;;;;;;1.73;1.63;;;;;;;19.77;88.02;99393.75;5087366;28;20671;-82
2023/07/24 02:02:39;;;;;;;1.80;1.70;;;;;;;19.81;87.56;99392.56;5079984;28;20236;-81
2023/07/24 02:05:06;;;;;;;1.90;1.80;;;;;;;19.65;87.97;99392.81;5072231;28;20203;-81
2023/07/24 02:07:33;;;;;;;1.73;1.63;;;;;;;19.67;88.08;99387.41;5072542;28;20239;-81
2023/07/24 02:09:59;;;;;;;1.80;1.70;;;;;;;19.68;88.39;99382.94;5076114;28;20196;-80
2023/07/24 02:12:26;;;;;;;1.50;1.40;;;;;;;19.79;88.06;99386.53;5088093;28;20211;-81
2023/07/24 02:14:53;;;;;;;1.53;1.40;;;;;;;19.86;87.60;99397.53;5091483;28;20204;-82
2023/07/24 02:17:21;;;;;;;1.70;1.60;;;;;;;19.88;86.92;99405.34;5094290;28;20300;-85
2023/07/24 02:19:47;;;;;;;1.80;1.70;;;;;;;19.87;87.02;99409.81;5093554;28;20210;-82
2023/07/24 02:22:14;;;;;;;1.50;1.40;;;;;;;19.68;88.19;99393.53;5089017;28;20696;-81
2023/07/24 02:24:40;;;;;;;1.70;1.60;;;;;;;19.76;87.61;99386.78;5070879;28;20212;-82
2023/07/24 02:27:07;;;;;;;1.63;1.53;;;;;;;19.82;87.32;99393.38;5081902;28;20221;-82
2023/07/24 02:29:34;;;;;;;1.60;1.50;;;;;;;19.90;86.92;99401.63;5078055;28;20206;-84
2023/07/24 02:32:01;;;;;;;1.67;1.57;;;;;;;19.82;87.50;99399.56;5077677;28;20201;-81
2023/07/24 02:34:29;;;;;;;1.60;1.50;;;;;;;19.80;87.50;99390.88;5074971;28;20207;-81
2023/07/24 02:36:56;;;;;;;1.50;1.40;;;;;;;19.63;88.36;99381.50;5074576;28;20703;-83
2023/07/24 02:39:22;;;;;;;3.00;1.50;;;;;;;19.63;88.31;99388.59;5074847;28;20209;-81
2023/07/24 02:41:49;;;;;;;1.37;1.30;;;;;;;19.54;89.57;99358.31;5075516;28;20236;-81
2023/07/24 02:44:16;;;;;;;1.67;1.57;;;;;;;19.64;88.69;99364.66;5075030;28;20204;-81
2023/07/24 02:46:42;;;;;;;1.67;1.57;;;;;;;19.74;87.83;99375.44;5074795;28;20229;-82
2023/07/24 02:49:09;;;;;;;1.67;1.57;;;;;;;19.72;87.92;99373.84;5075082;28;20205;-83
2023/07/24 02:51:36;;;;;;;3.00;1.80;;;;;;;19.75;87.44;99386.88;5082721;28;20208;-85
2023/07/24 02:54:03;;;;;;;1.70;1.60;;;;;;;19.76;87.25;99393.84;5086774;28;20208;-83
2023/07/24 02:56:30;;;;;;;1.57;1.47;;;;;;;19.75;86.93;99397.47;5076283;28;20780;-81
2023/07/24 02:58:56;;;;;;;1.30;1.20;;;;;;;19.76;87.08;99399.16;5077024;28;20205;-82
2023/07/24 03:01:23;;;;;;;1.70;1.60;;;;;;;19.72;87.32;99395.91;5096028;28;20262;-81
2023/07/24 03:03:50;;;;;;;1.33;1.33;;;;;;;19.75;86.97;99395.66;5095823;28;20720;-83
2023/07/24 03:06:16;;;;;;;1.40;1.30;;;;;;;19.71;87.15;99394.19;5094990;28;20220;-82
2023/07/24 03:08:44;;;;;;;1.40;1.30;;;;;;;19.69;87.21;99390.78;5095399;28;20203;-81
2023/07/24 03:11:10;;;;;;;2.00;1.80;;;;;;;19.72;86.80;99387.09;5095652;28;20201;-81
2023/07/24 03:13:40;;;;;;;2.03;1.30;;;;;;;19.66;87.51;99377.75;5095394;28;20226;-81
2023/07/24 03:16:07;;;;;;;1.33;1.23;;;;;;;19.65;87.54;99370.78;5106418;28;20291;-83
2023/07/24 03:18:33;;;;;;;1.80;1.70;;;;;;;19.57;87.56;99374.00;5105837;28;20200;-84
2023/07/24 03:21:00;;;;;;;1.70;1.60;;;;;;;19.55;87.73;99367.97;5079332;28;20212;-80
2023/07/24 03:23:32;;;;;;;1.43;1.33;;;;;;;19.55;87.46;99367.97;5074761;28;20225;-83
2023/07/24 03:26:00;;;;;;;1.37;1.30;;;;;;;19.57;87.51;99371.34;5076600;28;20228;-83
2023/07/24 03:28:27;;;;;;;1.80;1.70;;;;;;;19.57;87.45;99375.81;5077523;28;20552;-83
2023/07/24 03:30:53;;;;;;;1.40;1.30;;;;;;;19.57;87.65;99378.47;5076817;28;20216;-82
2023/07/24 03:33:20;;;;;;;1.67;1.57;;;;;;;19.49;88.04;99370.25;5089786;28;20197;-83
2023/07/24 03:35:47;;;;;;;1.53;1.43;;;;;;;19.47;88.11;99359.75;5095812;28;20224;-82
2023/07/24 03:38:13;;;;;;;1.97;1.80;;;;;;;19.46;87.94;99355.41;5095508;28;20250;-81
2023/07/24 03:40:40;;;;;;;1.27;1.27;;;;;;;19.44;88.08;99349.38;5095491;28;20237;-81
2023/07/24 03:43:08;;;;;;;1.63;1.53;;;;;;;19.42;88.54;99343.34;5095203;28;20228;-85
2023/07/24 03:45:34;;;;;;;1.60;1.50;;;;;;;19.42;88.21;99348.66;5095672;28;20278;-81
2023/07/24 03:48:01;;;;;;;1.97;1.77;;;;;;;19.41;88.41;99344.34;5094369;28;20265;-81
2023/07/24 03:50:30;;;;;;;1.70;1.60;;;;;;;19.38;88.71;99331.31;5094865;28;20560;-81
2023/07/24 03:52:56;;;;;;;3.33;1.83;;;;;;;19.38;88.62;99326.84;5094205;28;20589;-81
2023/07/24 03:55:23;;;;;;;2.53;1.60;;;;;;;19.38;88.18;99337.44;5094443;28;20211;-81
2023/07/24 03:57:49;;;;;;;2.03;1.60;;;;;;;19.35;89.04;99323.63;5094936;28;20215;-81
2023/07/24 04:00:18;;;;;;;1.70;1.60;;;;;;;19.39;89.08;99317.97;5091979;28;20201;-82
2023/07/24 04:02:45;;;;;;;1.60;1.50;;;;;;;19.37;89.11;99322.53;5076578;28;20307;-84
2023/07/24 04:05:11;;;;;;;1.77;1.67;;;;;;;19.41;89.16;99324.00;5087337;28;20216;-81
2023/07/24 04:07:38;;;;;;;3.07;1.83;;;;;;;19.43;88.83;99324.72;5093279;28;20238;-81
2023/07/24 04:10:05;;;;;;;2.87;1.47;;;;;;;19.42;88.75;99325.69;5096733;28;20235;-82
2023/07/24 04:12:31;;;;;;;1.73;1.63;;;;;;;19.40;89.50;99309.06;5095750;28;20212;-82
2023/07/24 04:14:58;;;;;;;1.43;1.30;;;;;;;19.37;89.74;99304.00;5095347;28;20217;-81
2023/07/24 04:17:26;;;;;;;1.97;1.50;;;;;;;19.35;89.68;99292.69;5095841;28;20223;-81
2023/07/24 04:19:52;;;;;;;1.97;1.70;;;;;;;19.35;89.80;99294.50;5096915;28;20215;-81
2023/07/24 04:22:19;;;;;;;1.67;1.57;;;;;;;19.33;90.11;99278.72;5075346;28;20228;-84
2023/07/24 04:24:45;;;;;;;1.50;1.40;;;;;;;19.32;90.09;99282.31;5091539;28;20228;-83
2023/07/24 04:27:12;;;;;;;1.60;1.50;;;;;;;19.34;90.41;99279.56;5096147;28;20220;-81
2023/07/24 04:29:38;;;;;;;1.60;1.50;;;;;;;19.30;90.89;99265.72;5095571;28;20215;-82
2023/07/24 04:32:05;;;;;;;1.30;1.30;;;;;;;19.31;90.85;99270.06;5085387;28;20206;-83
2023/07/24 04:34:33;;;;;;;1.93;1.80;;;;;;;19.33;91.37;99262.84;5098251;22;20236;-83
2023/07/24 04:37:00;;;;;;;1.53;1.43;;;;;;;19.35;91.25;99252.16;5100569;28;20215;-81
2023/07/24 04:39:26;;;;;;;2.90;1.80;;;;;;;19.34;91.26;99246.00;5099484;28;20200;-83
2023/07/24 04:41:53;;;;;;;1.43;1.40;;;;;;;19.32;91.26;99239.97;5095384;28;20224;-83
2023/07/24 04:44:19;;;;;;;1.43;1.30;;;;;;;19.32;91.19;99234.69;5084181;28;20224;-81
2023/07/24 04:46:45;;;;;;;3.40;1.70;;;;;;;19.34;91.26;99237.22;5099754;28;20208;-83
2023/07/24 04:49:12;;;;;;;2.97;1.40;;;;;;;19.21;92.33;99232.84;5096336;28;20214;-81
2023/07/24 04:51:40;;;;;;;1.83;1.50;;;;;;;19.25;92.57;99215.78;5100760;28;20203;-79
2023/07/24 04:54:06;;;;;;;1.47;1.37;;;;;;;19.27;92.90;99197.16;5097587;28;20245;-83
2023/07/24 04:56:32;;;;;;;1.60;1.50;;;;;;;19.24;93.73;99177.06;5094918;28;20208;-81
2023/07/24 04:58:59;;;;;;;2.00;1.50;;;;;;;19.13;94.44;99155.03;5094747;28;20215;-82
2023/07/24 05:01:25;;;;;;;1.83;1.73;;;;;;;19.19;94.22;99144.00;5094543;28;20850;-82
2023/07/24 05:03:51;;;;;;;1.30;1.30;;;;;;;19.14;95.64;99132.91;5094872;28;20281;-79
2023/07/24 05:06:18;;;;;;;1.43;1.33;;;;;;;19.22;94.65;99127.88;5094555;28;20681;-81
2023/07/24 05:08:46;;;;;;;1.50;1.40;;;;;;;19.22;95.98;99117.28;5094667;28;20203;-81
2023/07/24 05:11:13;;;;;;;1.63;1.53;;;;;;;19.30;95.19;99111.41;5094823;28;20207;-80
2023/07/24 05:13:39;;;;;;;1.50;1.40;;;;;;;19.31;95.02;99123.69;5094395;28;20203;-80
2023/07/24 05:16:06;;;;;;;1.63;1.20;;;;;;;19.28;93.81;99142.44;5092977;28;20823;-87
2023/07/24 05:18:32;;;;;;;1.60;1.50;;;;;;;19.32;94.31;99128.84;5093975;28;20234;-84
2023/07/24 05:20:59;;;;;;;1.73;1.33;;;;;;;19.36;96.32;99103.84;5093938;28;20301;-84
2023/07/24 05:23:25;;;;;;;1.47;1.37;;;;;;;19.45;95.03;99121.66;5094162;28;20296;-83
2023/07/24 05:25:58;;;;;;;2.43;1.30;;;;;;;19.51;93.51;99145.97;5094850;28;20220;-81
2023/07/24 05:28:25;;;;;;;2.03;1.50;;;;;;;19.57;93.44;99154.28;5094567;28;20231;-82
2023/07/24 05:30:52;;;;;;;1.50;1.40;;;;;;;19.60;94.70;99159.34;5094435;28;20208;-85
2023/07/24 05:33:18;;;;;;;2.80;1.33;;;;;;;19.71;93.51;99162.97;5094641;28;20207;-82
2023/07/24 05:35:45;;;;;;;1.70;1.60;;;;;;;19.79;92.62;99187.09;5093751;28;20228;-82
2023/07/24 05:38:11;;;;;;;2.17;1.67;;;;;;;19.86;91.74;99213.94;5093189;28;20209;-84
2023/07/24 05:40:38;;;;;;;2.07;1.50;;;;;;;19.85;92.38;99221.03;5093980;28;20215;-87
2023/07/24 05:43:05;;;;;;;1.23;1.17;;;;;;;19.87;91.94;99210.31;5093418;28;20231;-87
2023/07/24 05:45:32;;;;;;;1.73;1.63;;;;;;;19.89;91.73;99217.19;5093344;28;20273;-86
2023/07/24 05:47:58;;;;;;;1.80;1.57;;;;;;;19.90;91.12;99207.44;5093952;28;20204;-86
2023/07/24 05:50:24;;;;;;;2.20;1.60;;;;;;;19.81;94.55;99169.28;5093347;28;20200;-83
2023/07/24 05:52:51;;;;;;;1.40;1.30;;;;;;;19.83;94.24;99168.19;5094438;28;21016;-84
2023/07/24 05:55:17;;;;;;;2.50;1.77;;;;;;;19.84;94.99;99156.63;5094859;28;20272;-82
2023/07/24 05:57:45;;;;;;;1.67;1.57;;;;;;;19.86;96.43;99130.03;5094214;28;20627;-85
2023/07/24 06:00:13;;;;;;;1.70;1.60;;;;;;;19.88;95.50;99130.75;5111631;28;20616;-84
2023/07/24 06:02:40;;;;;;;2.97;2.10;;;;;;;19.92;95.59;99129.56;5117394;28;20234;-81
2023/07/24 06:05:07;;;;;;;1.70;1.60;;;;;;;19.82;93.74;99147.09;5118558;28;20621;-79
2023/07/24 06:07:33;;;;;;;2.27;2.07;;;;;;;19.89;94.26;99142.19;5106953;28;20200;-85
2023/07/24 06:10:00;;;;;;;2.33;1.87;;;;;;;19.96;94.31;99144.25;5081685;28;20215;-83
2023/07/24 06:12:26;;;;;;;2.37;1.97;;;;;;;20.04;94.49;99135.69;5076621;28;20197;-85
2023/07/24 06:14:52;;;;;;;3.33;1.90;;;;;;;20.09;94.84;99125.56;5076124;28;20602;-83
2023/07/24 06:17:20;;;;;;;2.50;2.13;;;;;;;20.03;92.66;99155.19;5076070;28;20218;-84
2023/07/24 06:19:47;;;;;;;1.83;1.73;;;;;;;20.00;93.15;99150.97;5076729;28;20211;-86
2023/07/24 06:22:13;;;;;;;1.83;1.73;;;;;;;19.98;92.26;99176.75;5077288;28;20214;-85
2023/07/24 06:24:40;;;;;;;1.97;1.77;;;;;;;20.07;93.38;99156.63;5076756;28;20232;-84
2023/07/24 06:27:07;;;;;;;2.60;2.00;;;;;;;20.09;90.92;99181.19;5077733;28;20208;-85
2023/07/24 06:29:34;;;;;;;2.37;2.00;;;;;;;20.20;90.85;99189.16;5078900;28;20208;-85
2023/07/24 06:32:00;;;;;;;2.70;2.33;;;;;;;20.29;91.42;99173.47;5078901;28;20218;-82
2023/07/24 06:34:28;;;;;;;2.27;2.10;;;;;;;20.38;91.30;99184.19;5077467;28;20236;-84
2023/07/24 06:36:54;;;;;;;2.10;2.00;;;;;;;20.47;90.23;99201.16;5078512;28;20205;-81
2023/07/24 06:39:21;;;;;;;2.10;2.00;;;;;;;20.53;89.18;99219.22;5076987;28;20215;-85
2023/07/24 06:41:47;;;;;;;2.03;1.87;;;;;;;20.56;89.15;99220.81;5076829;28;20245;-85
2023/07/24 06:44:14;;;;;;;2.20;2.00;;;;;;;20.52;86.84;99254.66;5076643;28;20229;-84
2023/07/24 06:46:40;;;;;;;2.13;1.93;;;;;;;20.50;87.72;99253.09;5076113;28;20583;-86
2023/07/24 06:49:06;;;;;;;2.10;1.90;;;;;;;20.53;87.83;99255.50;5077193;28;20212;-86
2023/07/24 06:51:34;;;;;;;2.97;1.83;;;;;;;20.57;89.05;99228.63;5078142;28;20203;-81
2023/07/24 06:54:01;;;;;;;2.97;2.10;;;;;;;20.52;87.15;99237.91;5076151;28;20228;-84
2023/07/24 06:56:27;;;;;;;2.27;2.07;;;;;;;20.59;87.62;99242.66;5075952;28;20216;-86
2023/07/24 06:58:54;;;;;;;2.67;2.00;;;;;;;20.57;86.89;99252.50;5076497;28;20208;-85
2023/07/24 07:01:20;;;;;;;3.77;2.20;;;;;;;20.53;86.91;99258.97;5075591;28;20288;-87
2023/07/24 07:03:47;;;;;;;2.50;2.20;;;;;;;20.63;87.20;99257.34;5075734;28;20893;-84
2023/07/24 07:06:13;;;;;;;2.50;2.03;;;;;;;20.78;86.80;99267.69;5076572;28;20208;-84
2023/07/24 07:08:41;;;;;;;2.43;2.10;;;;;;;20.87;86.48;99272.25;5074176;28;20211;-84
2023/07/24 07:11:07;;;;;;;2.30;2.10;;;;;;;20.81;84.30;99315.16;5076182;28;20270;-86
2023/07/24 07:13:34;;;;;;;1.90;1.80;;;;;;;20.93;84.89;99298.28;5074904;28;20208;-84
2023/07/24 07:16:00;;;;;;;2.33;2.13;;;;;;;20.89;83.81;99322.50;5075909;28;20247;-87
2023/07/24 07:18:27;;;;;;;2.37;2.13;;;;;;;20.86;82.10;99333.38;5076110;28;20230;-87
2023/07/24 07:20:54;;;;;;;2.67;2.17;;;;;;;20.98;82.38;99350.97;5076367;28;20208;-87
2023/07/24 07:23:21;;;;;;;2.70;2.30;;;;;;;21.00;81.97;99357.00;5076475;28;20236;-86
2023/07/24 07:25:50;;;;;;;2.23;2.13;;;;;;;21.05;82.00;99380.50;5076275;28;20628;-86
2023/07/24 07:28:17;;;;;;;4.40;2.27;;;;;;;20.93;81.15;99399.09;5075966;28;20205;-86
2023/07/24 07:30:44;;;;;;;2.90;2.30;;;;;;;20.97;81.30;99376.66;5075461;28;20248;-89
2023/07/24 07:33:11;;;;;;;2.53;2.33;;;;;;;21.03;81.66;99378.84;5076530;28;20258;-86
2023/07/24 07:35:38;;;;;;;2.57;2.37;;;;;;;21.16;80.17;99376.03;5074816;28;20229;-86
2023/07/24 07:38:04;;;;;;;2.40;2.20;;;;;;;21.39;80.69;99374.19;5074512;28;20204;-86
2023/07/24 07:40:31;;;;;;;2.43;2.23;;;;;;;21.49;77.95;99410.66;5076273;28;20212;-86
2023/07/24 07:42:59;;;;;;;2.37;2.03;;;;;;;21.65;79.52;99402.28;5076539;28;20286;-85
2023/07/24 07:45:25;;;;;;;2.53;2.03;;;;;;;21.76;77.92;99431.44;5076686;28;20225;-86
2023/07/24 07:47:53;;;;;;;2.17;2.03;;;;;;;21.84;77.75;99444.09;5076051;28;20204;-86
2023/07/24 07:50:19;;;;;;;2.47;2.27;;;;;;;21.82;76.86;99457.50;5076324;28;20199;-85
2023/07/24 07:52:46;;;;;;;4.43;2.13;;;;;;;21.64;76.04;99493.53;5076693;28;20201;-85
2023/07/24 07:55:13;;;;;;;4.13;2.50;;;;;;;21.78;76.38;99474.66;5077223;28;20377;-86
2023/07/24 07:57:40;;;;;;;2.50;2.10;;;;;;;21.83;76.34;99474.31;5076274;28;20579;-85
2023/07/24 08:00:09;;;;;;;2.27;2.07;;;;;;;21.87;76.15;99487.22;5076691;28;20215;-85
2023/07/24 08:02:39;;;;;;;2.73;2.53;;;;;;;22.02;75.38;99479.78;5076538;28;20205;-84
2023/07/24 08:05:07;;;;;;;2.70;2.30;;;;;;;22.07;76.42;99487.41;5077191;28;20724;-85
2023/07/24 08:07:33;;;;;;;2.83;2.63;;;;;;;22.07;76.46;99482.91;5076703;28;20213;-85
2023/07/24 08:09:59;;;;;;;2.20;1.93;;;;;;;21.86;77.43;99458.94;5077758;28;20211;-83
2023/07/24 08:12:26;;;;;;;2.87;2.40;;;;;;;21.88;78.09;99437.56;5075834;28;20262;-82
2023/07/24 08:14:52;;;;;;;2.50;2.30;;;;;;;21.74;79.19;99409.47;5075498;28;20290;-82
2023/07/24 08:17:20;;;;;;;2.73;2.50;;;;;;;21.38;78.15;99408.81;5074868;28;20567;-81
2023/07/24 08:19:47;;;;;;;2.73;2.53;;;;;;;21.47;79.70;99394.84;5076284;28;20259;-82
2023/07/24 08:22:13;;;;;;;3.67;3.10;;;;;;;21.52;80.25;99373.22;5075776;28;20229;-82
2023/07/24 08:24:39;;;;;;;3.57;2.93;;;;;;;21.61;81.19;99346.75;5074967;28;20666;-82
2023/07/24 08:27:06;;;;;;;2.50;2.30;;;;;;;21.58;79.93;99346.16;5075441;28;20208;-81
2023/07/24 08:29:35;;;;;;;2.27;1.90;;;;;;;21.54;78.35;99392.50;5096059;28;20215;-82
2023/07/24 08:32:02;;;;;;;2.57;2.37;;;;;;;21.59;79.13;99388.53;5095561;28;20197;-81
2023/07/24 08:34:29;;;;;;;2.53;2.33;;;;;;;21.31;79.07;99408.47;5075606;28;20228;-82
2023/07/24 08:36:56;;;;;;;2.10;1.90;;;;;;;21.18;78.65;99413.06;5075507;28;20212;-82
2023/07/24 08:39:22;;;;;;;2.43;1.93;;;;;;;21.31;79.66;99394.38;5075341;28;20205;-82
2023/07/24 08:41:49;;;;;;;2.13;1.93;;;;;;;21.18;79.86;99374.09;5087758;28;20570;-82
2023/07/24 08:44:16;;;;;;;2.00;1.90;;;;;;;21.07;79.79;99382.09;5096214;28;20226;-86
2023/07/24 08:46:45;;;;;;;3.17;2.30;;;;;;;21.23;80.35;99369.28;5096074;28;20670;-85
2023/07/24 08:49:13;;;;;;;3.63;2.00;;;;;;;21.18;80.38;99362.63;5097893;28;20684;-85
2023/07/24 08:51:41;;;;;;;2.43;2.20;;;;;;;21.22;80.57;99366.72;5096038;28;20234;-85
2023/07/24 08:54:08;;;;;;;2.17;2.07;;;;;;;21.20;80.24;99376.63;5097406;28;20746;-84
2023/07/24 08:56:37;;;;;;;1.97;1.87;;;;;;;21.20;80.65;99368.66;5096873;28;20205;-85
2023/07/24 08:59:04;;;;;;;2.27;2.00;;;;;;;21.26;80.44;99360.22;5096023;28;20207;-85
2023/07/24 09:01:30;;;;;;;2.40;2.20;;;;;;;21.25;80.44;99371.81;5095392;28;20202;-87
2023/07/24 09:03:57;;;;;;;2.73;2.50;;;;;;;21.19;80.21;99357.22;5096966;28;20624;-86
2023/07/24 09:06:24;;;;;;;2.30;2.10;;;;;;;21.34;80.12;99363.09;5099803;28;20200;-84
2023/07/24 09:08:54;;;;;;;1.97;1.87;;;;;;;21.19;79.41;99369.66;5108839;28;20203;-86
2023/07/24 09:11:21;;;;;;;2.37;2.20;;;;;;;21.30;79.69;99387.34;5098561;28;20211;-84
2023/07/24 09:13:49;;;;;;;2.27;2.07;;;;;;;21.40;79.85;99380.31;5096782;28;20207;-84
2023/07/24 09:16:23;;;;;;;3.07;2.73;;;;;;;21.16;80.56;99388.47;5095267;28;20246;-83
2023/07/24 09:18:51;;;;;;;2.23;2.13;;;;;;;20.90;80.95;99375.44;5095806;28;20208;-79
2023/07/24 09:21:28;;;;;;;2.50;2.30;;;;;;;20.99;81.68;99352.66;5095059;28;20219;-84
2023/07/24 09:23:56;;;;;;;2.30;2.10;;;;;;;21.22;81.52;99340.19;5094888;28;20218;-83
2023/07/24 09:26:23;;;;;;;2.67;2.47;;;;;;;21.14;81.47;99338.16;5094348;28;20205;-86
2023/07/24 09:28:55;;;;;;;2.63;2.33;;;;;;;21.20;80.43;99358.06;5094653;28;20632;-82
2023/07/24 09:31:22;;;;;;;2.80;2.60;;;;;;;21.25;80.56;99357.66;5094382;28;20212;-83
2023/07/24 09:33:51;;;;;;;2.60;2.23;;;;;;;21.32;80.15;99365.03;5093972;28;20230;-85
2023/07/24 09:36:18;;;;;;;1.93;1.83;;;;;;;21.46;79.80;99379.03;5095567;28;20204;-81
2023/07/24 09:38:45;;;;;;;3.10;2.30;;;;;;;21.50;79.76;99386.59;5098513;28;20208;-80
2023/07/24 09:41:14;;;;;;;2.00;1.90;;;;;;;;;;5098794;28;20210;-85
2023/07/24 09:43:42;;;;;;;2.33;2.20;;;;;;;21.88;78.83;99395.88;5097849;28;20276;-83
2023/07/24 09:46:09;;;;;;;2.30;2.20;;;;;;;22.02;78.02;99421.31;5098034;28;20677;-86
2023/07/24 09:48:36;;;;;;;2.00;1.90;;;;;;;22.16;76.13;99446.75;5097694;28;20207;-85
2023/07/24 09:51:03;;;;;;;2.50;2.30;;;;;;;22.08;75.74;99481.09;5097863;28;20214;-85
2023/07/24 09:53:34;;;;;;;2.00;1.80;;;;;;;22.08;75.51;99481.97;5097077;28;20204;-84
2023/07/24 09:56:04;;;;;;;2.20;2.00;;;;;;;22.13;75.51;99500.19;5097986;28;20258;-85
2023/07/24 09:58:34;;;;;;;1.97;1.87;;;;;;;22.22;74.04;99510.06;5097378;28;20227;-84
2023/07/24 10:01:02;;;;;;;2.37;1.93;;;;;;;22.30;73.98;99525.41;5097537;28;20204;-86
2023/07/24 10:03:29;;;;;;;1.80;1.70;;;;;;;22.41;73.98;99528.84;5097541;28;20212;-87
2023/07/24 10:05:56;;;;;;;2.23;2.13;;;;;;;22.35;73.26;99536.50;5097352;28;20228;-83
2023/07/24 10:08:24;;;;;;;2.10;1.90;;;;;;;22.34;71.87;99574.72;5097169;28;20686;-82
2023/07/24 10:10:53;;;;;;;1.60;1.50;;;;;;;22.21;72.57;99582.81;5097297;28;20196;-81
2023/07/24 10:13:21;;;;;;;2.30;2.10;;;;;;;22.33;73.36;99555.25;5097202;28;20204;-80
2023/07/24 10:15:49;;;;;;;1.60;1.50;;;;;;;22.37;73.42;99556.66;5097538;28;20220;-79
2023/07/24 10:18:18;;;;;;;1.77;1.67;;;;;;;22.50;73.27;99555.69;5096859;28;20670;-81
2023/07/24 10:20:44;;;;;;;1.80;1.70;;;;;;;22.30;72.79;99552.84;5098024;28;20294;-81
2023/07/24 10:23:16;;;;;;;1.97;1.87;;;;;;;22.27;72.78;99549.59;5096849;28;20215;-82
2023/07/24 10:25:45;;;;;;;2.43;2.23;;;;;;;22.33;73.08;99520.66;5097043;28;20254;-80
2023/07/24 10:28:16;;;;;;;2.67;2.30;;;;;;;22.49;72.48;99524.72;5096780;28;20204;-79
2023/07/24 10:30:43;;;;;;;2.27;2.13;;;;;;;22.68;69.95;99567.44;5096859;28;20307;-81
2023/07/24 10:33:14;;;;;;;2.20;2.10;;;;;;;22.57;69.62;99604.72;5097353;28;20693;-80
2023/07/24 10:35:42;;;;;;;2.40;2.20;;;;;;;22.71;69.70;99598.25;5096390;28;20228;-79
2023/07/24 10:38:09;;;;;;;3.20;2.37;;;;;;;22.79;68.58;99631.25;5095933;28;20632;-81
2023/07/24 10:40:36;;;;;;;2.13;2.00;;;;;;;22.92;68.89;99624.91;5097431;28;20204;-80
2023/07/24 10:43:06;;;;;;;2.50;2.30;;;;;;;22.88;68.02;99640.28;5097214;28;20208;-81
2023/07/24 10:45:43;;;;;;;3.30;2.83;;;;;;;22.69;67.79;99664.88;5096973;28;20260;-82
2023/07/24 10:48:12;;;;;;;2.50;2.40;;;;;;;22.75;69.14;99626.28;5096477;28;20673;-81
2023/07/24 10:50:40;;;;;;;2.80;2.60;;;;;;;22.81;68.53;99628.44;5128650;22;20294;-85
2023/07/24 10:53:06;;;;;;;2.53;2.43;;;;;;;22.98;68.50;99619.06;5139677;27;20214;-85
2023/07/24 10:55:33;;;;;;;2.90;2.70;;;;;;;23.19;67.75;99622.63;5139983;27;20202;-85
2023/07/24 10:57:59;;;;;;;2.70;2.50;;;;;;;23.17;67.17;99664.50;5139813;27;20210;-84
2023/07/24 11:00:26;;;;;;;2.53;2.30;;;;;;;23.19;67.17;99659.03;5138782;27;20218;-84
2023/07/24 11:02:54;;;;;;;2.90;2.60;;;;;;;23.26;68.08;99641.56;5138814;27;20208;-82
2023/07/24 11:05:22;;;;;;;3.20;2.90;;;;;;;23.35;67.34;99655.94;5140096;27;20716;-85
2023/07/24 11:07:48;;;;;;;3.40;3.10;;;;;;;23.34;66.50;99672.88;5139317;27;20198;-83
2023/07/24 11:10:16;;;;;;;3.23;3.00;;;;;;;23.53;65.21;99688.16;5140678;27;20244;-83
2023/07/24 11:12:42;;;;;;;3.80;3.37;;;;;;;23.70;64.65;99718.69;5138607;27;20199;-82
2023/07/24 11:15:10;;;;;;;3.50;3.20;;;;;;;23.78;63.88;99762.41;5139400;27;20195;-84
2023/07/24 11:17:40;;;;;;;3.30;3.10;;;;;;;23.96;63.98;99770.66;5140515;27;20606;-84
2023/07/24 11:20:11;;;;;;;3.30;3.10;;;;;;;24.12;61.79;99802.16;5143740;27;20649;-84
2023/07/24 11:22:41;;;;;;;3.33;3.03;;;;;;;23.87;59.49;99880.72;5140691;27;20219;-85
2023/07/24 11:25:08;;;;;;;3.77;2.90;;;;;;;23.84;60.21;99888.94;5140146;27;20236;-84
2023/07/24 11:27:39;;;;;;;3.50;3.20;;;;;;;23.85;61.09;99881.81;5139272;27;20499;-83
2023/07/24 11:30:07;;;;;;;2.90;2.70;;;;;;;23.90;62.68;99807.63;5143459;27;20762;-84
2023/07/24 11:32:33;;;;;;;3.27;2.97;;;;;;;24.25;61.89;99811.78;5143839;27;20201;-85
2023/07/24 11:35:01;;;;;;;3.20;3.00;;;;;;;24.55;58.88;99846.47;5137318;27;20202;-83